Time;durP1;ratioP1;P1;durP2;ratioP2;P2;SDS_P1;SDS_P2;PMS_P1;PMS_P2;Temp;Humidity;BMP_temperature;BMP_pressure;BME280_temperature;BME280_humidity;BME280_pressure;Samples;Min_cycle;Max_cycle;Signal;HPM_P1;HPM_P2
2021/05/06 01:59:47;;;;;;;;;;;;;;;;;;;;;
2021/05/06 02:01:59;;;;;;;1999.90;999.90;;;5.10;99.90;;;;;;4876790;29;20182;-93
2021/05/06 02:04:38;;;;;;;1999.90;999.90;;;5.10;99.90;;;;;;4880634;29;20651;-94
2021/05/06 02:07:19;;;;;;;;;;;;;;;;;;;;;
2021/05/06 02:09:56;;;;;;;1999.90;999.90;;;5.10;99.90;;;;;;4881950;29;20215;-91
2021/05/06 02:12:43;;;;;;;1999.90;999.90;;;5.10;99.90;;;;;;4881345;29;20175;-92
2021/05/06 02:15:40;;;;;;;1999.90;999.90;;;5.10;99.90;;;;;;4881295;29;20647;-93
2021/05/06 02:18:12;;;;;;;1999.90;999.90;;;5.10;99.90;;;;;;4880655;29;20171;-91
2021/05/06 02:20:45;;;;;;;1999.90;999.90;;;5.10;99.90;;;;;;4880640;29;20258;-93
2021/05/06 02:23:36;;;;;;;1999.90;999.90;;;5.10;99.90;;;;;;4880527;29;20195;-93
2021/05/06 02:26:57;;;;;;;1999.90;999.90;;;5.10;99.90;;;;;;4864562;29;20192;-93
2021/05/06 02:29:28;;;;;;;;;;;;;;;;;;;;;
2021/05/06 02:32:01;;;;;;;1999.90;999.90;;;5.10;99.90;;;;;;4880695;29;20210;-93
2021/05/06 02:34:29;;;;;;;1999.90;999.90;;;5.10;99.90;;;;;;4880321;29;20176;-91
2021/05/06 02:37:05;;;;;;;1999.90;999.90;;;5.10;99.90;;;;;;4880020;29;20630;-94
2021/05/06 02:39:47;;;;;;;;;;;;;;;;;;;;;
2021/05/06 02:42:51;;;;;;;1999.90;999.90;;;5.10;99.90;;;;;;4881163;29;20290;-91
2021/05/06 02:45:20;;;;;;;1999.90;999.90;;;5.00;99.90;;;;;;4879849;29;20265;-92
2021/05/06 02:47:59;;;;;;;;;;;;;;;;;;;;;
2021/05/06 02:51:05;;;;;;;1999.90;999.90;;;4.90;99.90;;;;;;4880828;29;20221;-94
2021/05/06 02:53:43;;;;;;;1999.90;999.90;;;4.90;99.90;;;;;;4880091;29;20183;-92
2021/05/06 02:56:33;;;;;;;1999.90;999.90;;;4.80;99.90;;;;;;4879940;29;20190;-92
2021/05/06 03:04:49;;;;;;;1999.90;999.90;;;4.50;99.90;;;;;;4880861;29;20247;-92
2021/05/06 03:07:21;;;;;;;1999.90;999.90;;;4.50;99.90;;;;;;4880281;29;20664;-91
2021/05/06 03:10:05;;;;;;;1999.90;999.90;;;4.40;99.90;;;;;;4879748;29;20215;-93
2021/05/06 03:23:50;;;;;;;1999.90;999.90;;;4.30;99.90;;;;;;4880775;29;20584;-91
2021/05/06 03:26:27;;;;;;;1999.90;999.90;;;4.30;99.90;;;;;;4879923;29;20519;-92
2021/05/06 03:29:20;;;;;;;1999.90;999.90;;;4.20;99.90;;;;;;4881335;29;20203;-90
2021/05/06 05:54:48;;;;;;;1999.90;999.90;;;6.20;99.90;;;;;;4880009;29;20211;-88
2021/05/06 05:57:14;;;;;;;1999.90;999.90;;;6.50;99.90;;;;;;4895471;29;20187;-86
2021/05/06 05:59:43;;;;;;;1999.90;999.90;;;6.70;99.90;;;;;;4881168;29;20171;-87
2021/05/06 06:02:09;;;;;;;1999.90;999.90;;;7.00;99.90;;;;;;4895205;29;20187;-87
2021/05/06 06:04:34;;;;;;;1999.90;999.90;;;7.20;99.90;;;;;;4895042;29;20270;-86
2021/05/06 06:07:00;;;;;;;1999.90;999.90;;;7.50;99.90;;;;;;4893833;29;20266;-87
2021/05/06 06:09:26;;;;;;;1999.90;999.90;;;7.70;99.90;;;;;;4885283;29;20236;-83
2021/05/06 06:11:51;;;;;;;1999.90;999.90;;;7.70;99.90;;;;;;4881113;29;20187;-83
2021/05/06 06:14:23;;;;;;;1999.90;999.90;;;7.90;99.90;;;;;;4884569;29;20707;-85
2021/05/06 06:16:58;;;;;;;1999.90;999.90;;;7.90;99.90;;;;;;4880278;29;20198;-92
2021/05/06 06:35:38;;;;;;;1999.90;999.90;;;7.70;99.90;;;;;;4861024;29;20198;-91
2021/05/06 06:38:31;;;;;;;1999.90;999.90;;;7.60;99.90;;;;;;4860518;29;20187;-91
2021/05/06 06:40:59;;;;;;;1999.90;999.90;;;7.70;99.90;;;;;;4861234;29;20267;-92
2021/05/06 06:43:46;;;;;;;;;;;;;;;;;;;;;
2021/05/06 06:46:38;;;;;;;1999.90;999.90;;;8.00;99.90;;;;;;4862032;29;20180;-91
2021/05/06 06:53:22;;;;;;;1999.90;999.90;;;8.30;99.90;;;;;;4861886;29;20191;-90
2021/05/06 06:56:00;;;;;;;;;;;;;;;;;;;;;
2021/05/06 07:01:58;;;;;;;1999.90;999.90;;;8.70;99.90;;;;;;4787425;29;20193;-92
2021/05/06 08:49:07;;;;;;;1999.90;999.90;;;12.40;99.90;;;;;;5620251;23;20222;-90
2021/05/06 08:51:37;;;;;;;1999.90;999.90;;;12.00;99.90;;;;;;4916821;29;20190;-89
2021/05/06 08:54:16;;;;;;;1999.90;999.90;;;12.10;99.90;;;;;;4899111;29;20184;-90
2021/05/06 09:00:35;;;;;;;1999.90;999.90;;;12.50;99.90;;;;;;4900168;29;20202;-91
2021/05/06 09:03:09;;;;;;;1999.90;999.90;;;12.60;99.90;;;;;;4900318;29;20198;-92
2021/05/06 09:06:16;;;;;;;1999.90;999.90;;;12.50;99.90;;;;;;4900473;29;20182;-91
2021/05/06 09:08:46;;;;;;;1999.90;999.90;;;12.40;99.90;;;;;;4902163;29;20182;-91
2021/05/06 09:11:21;;;;;;;1999.90;999.90;;;12.60;99.90;;;;;;4906291;29;20178;-90
2021/05/06 09:14:15;;;;;;;1999.90;999.90;;;12.70;99.90;;;;;;4897180;29;20171;-91
2021/05/06 09:16:46;;;;;;;1999.90;999.90;;;12.90;99.90;;;;;;4883826;29;20207;-90
2021/05/06 09:19:24;;;;;;;1999.90;999.90;;;13.10;99.90;;;;;;4889904;29;20276;-90
2021/05/06 09:22:23;;;;;;;1999.90;999.90;;;13.40;99.90;;;;;;4900587;29;20174;-89
2021/05/06 09:25:02;;;;;;;1999.90;999.90;;;13.80;99.90;;;;;;4900127;29;20175;-90
2021/05/06 09:27:33;;;;;;;1999.90;999.90;;;14.00;99.90;;;;;;4901078;29;20171;-91
2021/05/06 09:30:38;;;;;;;;;;;;;;;;;;;;;
2021/05/06 09:36:10;;;;;;;1999.90;999.90;;;14.20;99.90;;;;;;4900228;29;20254;-88
2021/05/06 09:38:59;;;;;;;1999.90;999.90;;;14.60;99.90;;;;;;4899922;29;20616;-90
2021/05/06 09:41:36;;;;;;;1999.90;999.90;;;14.00;99.90;;;;;;4893125;29;20225;-91
2021/05/06 09:44:16;;;;;;;1999.90;999.90;;;13.80;99.90;;;;;;4899434;29;20177;-90
2021/05/06 09:58:35;;;;;;;1999.90;999.90;;;14.10;99.90;;;;;;5490396;23;20230;-87
2021/05/06 10:01:11;;;;;;;1999.90;999.90;;;13.70;99.90;;;;;;4870229;29;20195;-88
2021/05/06 10:03:37;;;;;;;1999.90;999.90;;;14.30;99.90;;;;;;4885489;29;20179;-86
2021/05/06 10:06:14;;;;;;;1999.90;999.90;;;13.80;99.90;;;;;;4881275;29;20186;-86
2021/05/06 10:08:43;;;;;;;1999.90;999.90;;;13.30;99.90;;;;;;4879297;29;20182;-87
2021/05/06 10:11:14;;;;;;;1999.90;999.90;;;13.20;99.90;;;;;;4880405;29;20180;-87
2021/05/06 10:13:42;;;;;;;1999.90;999.90;;;13.50;99.90;;;;;;4879357;29;20227;-88
2021/05/06 10:16:09;;;;;;;1999.90;999.90;;;14.10;99.90;;;;;;4878980;29;20179;-86
2021/05/06 10:18:40;;;;;;;1999.90;999.90;;;14.10;99.90;;;;;;4878641;29;20274;-88
2021/05/06 10:21:10;;;;;;;1999.90;999.90;;;13.80;99.90;;;;;;4878704;29;20222;-85
2021/05/06 10:23:37;;;;;;;1999.90;999.90;;;13.90;99.90;;;;;;4878926;29;20187;-86
2021/05/06 10:26:03;;;;;;;1999.90;999.90;;;13.70;99.90;;;;;;4878667;29;20215;-86
2021/05/06 10:28:35;;;;;;;1999.90;999.90;;;13.80;99.90;;;;;;4878168;29;20191;-87
2021/05/06 10:31:03;;;;;;;1999.90;999.90;;;14.10;99.90;;;;;;4873456;29;20659;-85
2021/05/06 10:33:31;;;;;;;1999.90;999.90;;;14.20;99.90;;;;;;4892813;29;20187;-87
2021/05/06 10:36:02;;;;;;;1999.90;999.90;;;14.30;99.90;;;;;;4878574;29;20235;-89
2021/05/06 10:38:36;;;;;;;1999.90;999.90;;;14.60;99.90;;;;;;4878852;29;20180;-87
2021/05/06 10:41:28;;;;;;;1999.90;999.90;;;14.70;99.90;;;;;;4878528;29;20203;-85
2021/05/06 10:43:56;;;;;;;1999.90;999.90;;;14.90;99.90;;;;;;4860914;29;20206;-86
2021/05/06 10:46:22;;;;;;;1999.90;999.90;;;15.10;99.90;;;;;;4878279;29;20175;-86
2021/05/06 10:49:03;;;;;;;1999.90;999.90;;;15.30;99.90;;;;;;4878381;29;20203;-85
2021/05/06 10:51:35;;;;;;;1999.90;999.90;;;15.10;99.90;;;;;;4863392;29;20187;-85
2021/05/06 10:54:23;;;;;;;1999.90;999.90;;;15.30;99.90;;;;;;4882238;29;20187;-85
2021/05/06 10:56:49;;;;;;;1999.90;999.90;;;15.40;99.90;;;;;;4882938;29;20198;-86
2021/05/06 10:59:26;;;;;;;1999.90;999.90;;;15.50;99.90;;;;;;4875869;29;20310;-86
2021/05/06 11:01:52;;;;;;;1999.90;999.90;;;15.60;99.90;;;;;;4878192;29;20190;-86
2021/05/06 11:04:42;;;;;;;1999.90;999.90;;;15.60;99.90;;;;;;4879229;29;20689;-83
2021/05/06 11:07:18;;;;;;;1999.90;999.90;;;15.40;99.90;;;;;;4879570;29;20616;-90
2021/05/06 11:12:54;;;;;;;1999.90;999.90;;;15.30;99.90;;;;;;4880080;29;20243;-91
2021/05/06 11:15:20;;;;;;;1999.90;999.90;;;15.00;99.90;;;;;;4879418;29;20183;-91
2021/05/06 11:17:54;;;;;;;1999.90;999.90;;;14.70;99.90;;;;;;4893571;29;20258;-92
2021/05/06 11:20:20;;;;;;;1999.90;999.90;;;14.50;99.90;;;;;;4879325;29;20179;-91
2021/05/06 11:22:55;;;;;;;1999.90;999.90;;;14.60;99.90;;;;;;4894207;29;20703;-90
2021/05/06 11:28:07;;;;;;;1999.90;999.90;;;14.80;99.90;;;;;;4880950;29;20627;-90
2021/05/06 11:30:43;;;;;;;1999.90;999.90;;;14.50;99.90;;;;;;4879021;29;20219;-91
2021/05/06 11:33:24;;;;;;;1999.90;999.90;;;14.70;99.90;;;;;;4882724;29;20219;-92
2021/05/06 11:36:16;;;;;;;1999.90;999.90;;;14.40;99.90;;;;;;4883332;29;20583;-90
2021/05/06 11:38:50;;;;;;;1999.90;999.90;;;14.90;99.90;;;;;;4879171;29;20265;-90
2021/05/06 11:41:28;;;;;;;1999.90;999.90;;;14.70;99.90;;;;;;4878889;29;20277;-89
2021/05/06 11:44:07;;;;;;;1999.90;999.90;;;14.60;99.90;;;;;;4880902;29;20187;-89
2021/05/06 11:46:39;;;;;;;1999.90;999.90;;;14.80;99.90;;;;;;4884430;29;20255;-90
2021/05/06 11:49:13;;;;;;;1999.90;999.90;;;14.60;99.90;;;;;;4880074;29;20230;-90
2021/05/06 11:51:52;;;;;;;1999.90;999.90;;;14.90;99.90;;;;;;4879062;29;20197;-90
2021/05/06 11:54:23;;;;;;;1999.90;999.90;;;15.30;99.90;;;;;;4864519;29;20214;-91
2021/05/06 11:56:57;;;;;;;1999.90;999.90;;;15.30;99.90;;;;;;4878747;29;20179;-90
2021/05/06 11:59:33;;;;;;;1999.90;999.90;;;15.10;99.90;;;;;;4878606;29;20203;-91
2021/05/06 12:02:08;;;;;;;1999.90;999.90;;;15.00;99.90;;;;;;4879081;29;20191;-91
2021/05/06 12:04:35;;;;;;;1999.90;999.90;;;14.40;99.90;;;;;;4879070;29;20183;-91
2021/05/06 12:07:18;;;;;;;1999.90;999.90;;;14.10;99.90;;;;;;4878689;29;20188;-90
2021/05/06 12:09:51;;;;;;;1999.90;999.90;;;14.20;99.90;;;;;;4878560;29;20318;-90
2021/05/06 12:12:32;;;;;;;1999.90;999.90;;;14.50;99.90;;;;;;4879203;29;20266;-90
2021/05/06 12:15:24;;;;;;;1999.90;999.90;;;14.60;98.80;;;;;;4878119;29;20183;-92
2021/05/06 12:18:31;;;;;;;1999.90;999.90;;;14.80;96.30;;;;;;4878800;29;20698;-91
2021/05/06 12:21:08;;;;;;;1999.90;999.90;;;14.50;96.40;;;;;;4881024;29;20195;-92
2021/05/06 12:23:37;;;;;;;1999.90;999.90;;;14.70;99.90;;;;;;4878733;29;20246;-91
2021/05/06 12:26:20;;;;;;;1999.90;999.90;;;14.90;98.50;;;;;;4878328;29;20716;-92
2021/05/06 12:29:00;;;;;;;1999.90;999.90;;;15.00;99.90;;;;;;4879277;29;20266;-92
2021/05/06 12:31:29;;;;;;;1999.90;999.90;;;15.00;99.90;;;;;;4878641;29;20220;-91
2021/05/06 12:33:58;;;;;;;1999.90;999.90;;;14.70;99.90;;;;;;4878679;29;20586;-92
2021/05/06 12:36:27;;;;;;;1999.90;999.90;;;14.50;99.90;;;;;;4881803;29;20188;-93
2021/05/06 12:39:07;;;;;;;1999.90;999.90;;;14.40;99.90;;;;;;4867143;29;20195;-91
2021/05/06 12:41:47;;;;;;;1999.90;999.90;;;14.40;99.90;;;;;;4881275;29;20186;-91
2021/05/06 12:44:13;;;;;;;1999.90;999.90;;;14.40;99.90;;;;;;4881973;29;20191;-90
2021/05/06 12:46:41;;;;;;;1999.90;999.90;;;14.70;99.90;;;;;;4881744;29;20219;-92
2021/05/06 12:49:09;;;;;;;1999.90;999.90;;;14.70;99.90;;;;;;4882306;29;20215;-92
2021/05/06 12:51:38;;;;;;;1999.90;999.90;;;14.80;99.90;;;;;;4885136;29;20602;-91
2021/05/06 12:54:11;;;;;;;1999.90;999.90;;;14.80;99.90;;;;;;4881680;29;20651;-91
2021/05/06 12:56:44;;;;;;;1999.90;999.90;;;14.80;99.90;;;;;;4881258;29;20659;-92
2021/05/06 13:18:36;;;;;;;1999.90;999.90;;;14.10;99.90;;;;;;4894230;29;20193;-96
2021/05/06 13:21:27;;;;;;;1999.90;999.90;;;13.70;99.90;;;;;;4913904;29;20193;-92
2021/05/06 13:24:58;;;;;;;;;;;;;;;;;;;;;
2021/05/06 13:27:50;;;;;;;1999.90;999.90;;;14.20;99.90;;;;;;4879280;29;20191;-92
2021/05/06 13:46:52;;;;;;;1999.90;999.90;;;14.40;99.90;;;;;;4879815;29;20207;-89
2021/05/06 13:49:22;;;;;;;1999.90;999.90;;;14.60;99.90;;;;;;4880441;29;20215;-89
2021/05/06 13:51:49;;;;;;;1999.90;999.90;;;14.30;99.90;;;;;;4886548;29;20191;-88
2021/05/06 13:54:16;;;;;;;1999.90;999.90;;;14.50;99.90;;;;;;4885665;29;20191;-88
2021/05/06 13:56:42;;;;;;;1999.90;999.90;;;14.30;99.90;;;;;;4892422;29;20179;-88
2021/05/06 13:59:07;;;;;;;1999.90;999.90;;;14.50;99.90;;;;;;4879473;29;20278;-88
2021/05/06 14:01:33;;;;;;;1999.90;999.90;;;14.20;99.90;;;;;;4882509;29;20687;-88
2021/05/06 14:03:59;;;;;;;1999.90;999.90;;;13.70;99.90;;;;;;4884951;29;20183;-88
2021/05/06 14:06:25;;;;;;;1999.90;999.90;;;13.60;99.90;;;;;;4883031;29;20175;-87
2021/05/06 14:08:53;;;;;;;1999.90;999.90;;;13.60;99.90;;;;;;4894624;29;20316;-88
2021/05/06 14:11:19;;;;;;;1999.90;999.90;;;13.70;99.90;;;;;;4880019;29;20205;-88
2021/05/06 14:13:45;;;;;;;1999.90;999.90;;;13.70;99.90;;;;;;4879349;29;20175;-87
2021/05/06 14:16:11;;;;;;;1999.90;999.90;;;13.70;99.90;;;;;;4885247;29;20183;-87
2021/05/06 14:18:39;;;;;;;1999.90;999.90;;;13.80;99.90;;;;;;4889446;29;20187;-87
2021/05/06 14:21:08;;;;;;;1999.90;999.90;;;13.80;99.90;;;;;;4878539;29;20183;-87
2021/05/06 14:23:39;;;;;;;1999.90;999.90;;;13.60;99.90;;;;;;4880016;29;20183;-87
2021/05/06 14:26:06;;;;;;;1999.90;999.90;;;13.50;99.90;;;;;;4875426;29;20528;-87
2021/05/06 14:28:31;;;;;;;1999.90;999.90;;;13.30;99.90;;;;;;4872043;29;20183;-87
2021/05/06 14:30:57;;;;;;;1999.90;999.90;;;13.30;99.90;;;;;;4875034;29;20324;-87
2021/05/06 14:33:23;;;;;;;1999.90;999.90;;;13.30;99.90;;;;;;4876397;29;20207;-87
2021/05/06 14:35:49;;;;;;;1999.90;999.90;;;13.20;99.90;;;;;;4876341;29;20654;-86
2021/05/06 14:38:15;;;;;;;1999.90;999.90;;;13.00;99.90;;;;;;4873670;29;20180;-85
2021/05/06 14:40:41;;;;;;;1999.90;999.90;;;12.90;99.90;;;;;;4868918;29;20198;-86
2021/05/06 14:43:08;;;;;;;1999.90;999.90;;;12.70;99.90;;;;;;4878192;29;20275;-86
2021/05/06 14:45:35;;;;;;;1999.90;999.90;;;12.60;99.90;;;;;;4878846;29;20270;-86
2021/05/06 14:48:02;;;;;;;1999.90;999.90;;;12.50;99.90;;;;;;4875888;29;20179;-86
2021/05/06 14:50:29;;;;;;;1999.90;999.90;;;12.30;99.90;;;;;;4860649;29;20220;-87
2021/05/06 14:52:55;;;;;;;1999.90;999.90;;;12.30;99.90;;;;;;4878183;29;20187;-87
2021/05/06 14:55:23;;;;;;;1999.90;999.90;;;12.10;99.90;;;;;;4878469;29;20183;-85
2021/05/06 14:57:50;;;;;;;1999.90;999.90;;;12.00;99.90;;;;;;4876461;29;20190;-86
2021/05/06 15:00:21;;;;;;;1999.90;999.90;;;11.80;99.90;;;;;;4867397;29;20644;-86
2021/05/06 15:02:48;;;;;;;1999.90;999.90;;;11.70;99.90;;;;;;4860205;29;20580;-86
2021/05/06 15:05:14;;;;;;;1999.90;999.90;;;11.60;99.90;;;;;;4873568;29;20230;-87
2021/05/06 15:07:43;;;;;;;1999.90;999.90;;;11.40;99.90;;;;;;4877929;29;20269;-88
2021/05/06 15:10:09;;;;;;;1999.90;999.90;;;11.20;99.90;;;;;;4880148;29;20231;-87
2021/05/06 15:12:35;;;;;;;1999.90;999.90;;;10.90;99.90;;;;;;4878499;29;20183;-88
2021/05/06 15:15:05;;;;;;;1999.90;999.90;;;10.60;99.90;;;;;;4878224;29;20175;-87
2021/05/06 15:17:31;;;;;;;1999.90;999.90;;;10.60;99.90;;;;;;4871064;29;20191;-85
2021/05/06 15:19:57;;;;;;;1999.90;999.90;;;10.50;99.90;;;;;;4878624;29;20640;-87
2021/05/06 15:22:24;;;;;;;1999.90;999.90;;;10.50;99.90;;;;;;4875866;29;20579;-87
2021/05/06 15:24:50;;;;;;;1999.90;999.90;;;10.40;99.90;;;;;;4859750;29;20780;-87
2021/05/06 15:27:16;;;;;;;1999.90;999.90;;;10.40;99.90;;;;;;4859928;29;20228;-85
2021/05/06 15:29:42;;;;;;;1999.90;999.90;;;10.30;99.90;;;;;;4883026;29;20223;-87
2021/05/06 15:32:08;;;;;;;1999.90;999.90;;;10.30;99.90;;;;;;4863307;29;20195;-87
2021/05/06 15:34:34;;;;;;;1999.90;999.90;;;10.20;99.90;;;;;;4878373;29;20243;-87
2021/05/06 15:37:00;;;;;;;1999.90;999.90;;;10.30;99.90;;;;;;4875130;29;20286;-86
2021/05/06 15:39:26;;;;;;;1999.90;999.90;;;10.30;99.90;;;;;;4860435;29;20184;-88
2021/05/06 15:41:54;;;;;;;1999.90;999.90;;;10.30;99.90;;;;;;4859556;29;20176;-87
2021/05/06 15:44:20;;;;;;;1999.90;999.90;;;10.10;99.90;;;;;;4859636;29;20240;-88
2021/05/06 15:46:45;;;;;;;1999.90;999.90;;;10.20;99.90;;;;;;4859620;29;20184;-88
2021/05/06 15:49:12;;;;;;;1999.90;999.90;;;10.10;99.90;;;;;;4859776;29;20245;-89
2021/05/06 15:51:38;;;;;;;1999.90;999.90;;;10.00;99.90;;;;;;4859399;29;20184;-87
2021/05/06 15:54:07;;;;;;;1999.90;999.90;;;9.90;99.90;;;;;;4859660;29;20180;-86
2021/05/06 15:56:34;;;;;;;1999.90;999.90;;;10.00;99.90;;;;;;4862745;29;20176;-86
2021/05/06 15:59:00;;;;;;;1999.90;999.90;;;9.70;99.90;;;;;;4862634;29;20199;-87
2021/05/06 16:01:32;;;;;;;1999.90;999.90;;;9.60;99.90;;;;;;4879010;29;20186;-91
2021/05/06 16:04:03;;;;;;;1999.90;999.90;;;9.60;99.90;;;;;;4883892;29;20183;-89
2021/05/06 16:06:29;;;;;;;1999.90;999.90;;;9.30;99.90;;;;;;4881308;29;20183;-88
2021/05/06 16:09:00;;;;;;;1999.90;999.90;;;9.30;99.90;;;;;;4880803;29;20179;-89
2021/05/06 16:11:33;;;;;;;1999.90;999.90;;;9.20;99.90;;;;;;4882244;29;20190;-88
2021/05/06 16:14:12;;;;;;;;;;;;;;;;;;;;;
2021/05/06 16:16:59;;;;;;;1999.90;999.90;;;9.00;99.90;;;;;;4890299;29;20239;-89
2021/05/06 16:19:34;;;;;;;1999.90;999.90;;;8.90;99.90;;;;;;4884458;29;20236;-91
2021/05/06 19:53:07;;;;;;;1999.90;999.90;;;6.60;99.90;;;;;;4879950;29;20295;-87
2021/05/06 19:55:34;;;;;;;1999.90;999.90;;;6.60;99.90;;;;;;4896220;29;20176;-87
2021/05/06 19:58:00;;;;;;;1999.90;999.90;;;6.60;99.90;;;;;;4896261;29;20179;-88
2021/05/06 20:00:26;;;;;;;1999.90;999.90;;;6.60;99.90;;;;;;4897178;29;20709;-88
2021/05/06 20:02:51;;;;;;;1999.90;999.90;;;6.60;99.90;;;;;;4897030;29;20183;-88
2021/05/06 20:05:20;;;;;;;1999.90;999.90;;;6.50;99.90;;;;;;4897492;29;20239;-88
2021/05/06 20:07:45;;;;;;;1999.90;999.90;;;6.60;99.90;;;;;;4896059;29;20180;-88
2021/05/06 20:10:14;;;;;;;1999.90;999.90;;;6.60;99.90;;;;;;4895363;29;20694;-88
2021/05/06 20:12:40;;;;;;;1999.90;999.90;;;6.50;99.90;;;;;;4896765;29;20180;-88
2021/05/06 20:15:07;;;;;;;1999.90;999.90;;;6.50;99.90;;;;;;4882128;29;20182;-88
2021/05/06 20:17:34;;;;;;;1999.90;999.90;;;6.50;99.90;;;;;;4896274;29;20239;-88
2021/05/06 20:20:06;;;;;;;1999.90;999.90;;;6.50;99.90;;;;;;4895811;29;20211;-89
2021/05/06 20:22:32;;;;;;;1999.90;999.90;;;6.50;99.90;;;;;;4897229;29;20563;-88
2021/05/06 20:24:58;;;;;;;1999.90;999.90;;;6.60;99.90;;;;;;4897082;29;20175;-87
2021/05/06 20:27:24;;;;;;;1999.90;999.90;;;6.50;99.90;;;;;;4896964;29;20614;-89
2021/05/06 20:29:50;;;;;;;1999.90;999.90;;;6.50;99.90;;;;;;4882392;29;20203;-87
2021/05/06 20:32:16;;;;;;;1999.90;999.90;;;6.50;99.90;;;;;;4882746;29;20175;-87
2021/05/06 20:34:42;;;;;;;1999.90;999.90;;;6.50;99.90;;;;;;4897298;29;20541;-88
2021/05/06 20:37:08;;;;;;;1999.90;999.90;;;6.50;99.90;;;;;;4897030;29;20656;-89
2021/05/06 20:39:34;;;;;;;1999.90;999.90;;;6.40;99.90;;;;;;4896893;29;20188;-87
2021/05/06 20:42:06;;;;;;;1999.90;999.90;;;6.40;99.90;;;;;;4896644;29;20175;-86
2021/05/06 20:47:10;;;;;;;1999.90;999.90;;;6.20;99.90;;;;;;4882648;29;20215;-89
2021/05/06 20:49:48;;;;;;;1999.90;999.90;;;6.20;99.90;;;;;;4896660;29;20214;-88
2021/05/06 20:52:22;;;;;;;1999.90;999.90;;;6.10;99.90;;;;;;4897339;29;20516;-88
2021/05/06 20:54:49;;;;;;;1999.90;999.90;;;6.10;99.90;;;;;;4881008;29;20179;-87
2021/05/06 20:57:15;;;;;;;1999.90;999.90;;;6.00;99.90;;;;;;4882148;29;20171;-90
2021/05/06 20:59:44;;;;;;;1999.90;999.90;;;5.90;99.90;;;;;;4896568;29;20643;-88
2021/05/06 21:02:12;;;;;;;1999.90;999.90;;;5.90;99.90;;;;;;4896377;29;20190;-88
2021/05/06 21:04:38;;;;;;;1999.90;999.90;;;5.80;99.90;;;;;;4896553;29;20191;-87
2021/05/06 21:07:05;;;;;;;1999.90;999.90;;;5.70;99.90;;;;;;4896622;29;20187;-88
2021/05/06 21:09:31;;;;;;;1999.90;999.90;;;5.70;99.90;;;;;;4896401;29;20231;-88
2021/05/06 21:11:58;;;;;;;1999.90;999.90;;;5.60;99.90;;;;;;4896278;29;20187;-88
2021/05/06 21:14:26;;;;;;;1999.90;999.90;;;5.60;99.90;;;;;;4896595;29;20266;-88
2021/05/06 21:16:52;;;;;;;1999.90;999.90;;;5.60;99.90;;;;;;4896299;29;20179;-88
2021/05/06 21:19:19;;;;;;;1999.90;999.90;;;5.60;99.90;;;;;;4896727;29;20179;-87
2021/05/06 21:21:45;;;;;;;1999.90;999.90;;;5.50;99.90;;;;;;4895990;29;20643;-89
2021/05/06 21:24:11;;;;;;;1999.90;999.90;;;5.40;99.90;;;;;;4895956;29;20191;-87
2021/05/06 21:26:38;;;;;;;1999.90;999.90;;;5.40;99.90;;;;;;4881785;29;20243;-87
2021/05/06 21:29:12;;;;;;;1999.90;999.90;;;5.30;99.90;;;;;;4895999;29;20577;-89
2021/05/06 21:31:38;;;;;;;1999.90;999.90;;;5.30;99.90;;;;;;4881740;29;20248;-90
2021/05/06 21:34:05;;;;;;;1999.90;999.90;;;5.30;99.90;;;;;;4896458;29;20194;-89
2021/05/06 21:36:31;;;;;;;1999.90;999.90;;;5.30;99.90;;;;;;4896137;29;20180;-88
2021/05/06 21:38:57;;;;;;;1999.90;999.90;;;5.20;99.90;;;;;;4895979;29;20191;-89
2021/05/06 21:41:23;;;;;;;1999.90;999.90;;;5.20;99.90;;;;;;4896098;29;20176;-88
2021/05/06 21:43:49;;;;;;;1999.90;999.90;;;5.20;99.90;;;;;;4895894;29;20208;-89
2021/05/06 21:46:15;;;;;;;1999.90;999.90;;;5.20;99.90;;;;;;4896359;29;20186;-89
2021/05/06 21:48:41;;;;;;;1999.90;999.90;;;5.10;99.90;;;;;;4896273;29;20183;-88
2021/05/06 21:51:07;;;;;;;1999.90;999.90;;;5.10;99.90;;;;;;4895637;29;20222;-88
2021/05/06 21:53:34;;;;;;;1999.90;999.90;;;5.10;99.90;;;;;;4895837;29;20183;-88
2021/05/06 21:56:00;;;;;;;1999.90;999.90;;;5.10;99.90;;;;;;4895455;29;20179;-89
2021/05/06 21:58:26;;;;;;;1999.90;999.90;;;5.10;99.90;;;;;;4895594;29;20180;-88
2021/05/06 22:00:51;;;;;;;1999.90;999.90;;;5.00;99.90;;;;;;4896059;29;20179;-89
2021/05/06 22:03:17;;;;;;;1999.90;999.90;;;5.00;99.90;;;;;;4896092;29;20188;-89
2021/05/06 22:05:43;;;;;;;1999.90;999.90;;;5.00;99.90;;;;;;4895261;29;20176;-89
2021/05/06 22:08:10;;;;;;;1999.90;999.90;;;5.00;99.90;;;;;;4895552;29;20275;-88
2021/05/06 22:10:37;;;;;;;1999.90;999.90;;;5.00;99.90;;;;;;4880866;29;20225;-88
2021/05/06 22:13:03;;;;;;;1999.90;999.90;;;4.90;99.90;;;;;;4895992;29;20186;-89
2021/05/06 22:15:32;;;;;;;1999.90;999.90;;;4.90;99.90;;;;;;4895520;29;20262;-88
2021/05/06 22:18:00;;;;;;;1999.90;999.90;;;4.90;99.90;;;;;;4895531;29;20175;-88
2021/05/06 22:20:26;;;;;;;1999.90;999.90;;;4.90;99.90;;;;;;4880941;29;20545;-88
2021/05/06 22:22:52;;;;;;;1999.90;999.90;;;4.80;99.90;;;;;;4896430;29;20266;-89
2021/05/06 22:25:19;;;;;;;1999.90;999.90;;;4.80;99.90;;;;;;4895269;29;20215;-89
2021/05/06 22:27:46;;;;;;;1999.90;999.90;;;4.70;99.90;;;;;;4895130;29;20224;-88
2021/05/06 22:30:17;;;;;;;1999.90;999.90;;;4.60;99.90;;;;;;4895332;29;20203;-89
2021/05/06 22:32:43;;;;;;;1999.90;999.90;;;4.60;99.90;;;;;;4894867;29;20183;-89
2021/05/06 22:35:09;;;;;;;1999.90;999.90;;;4.60;99.90;;;;;;4895625;29;20234;-88
2021/05/06 22:37:35;;;;;;;1999.90;999.90;;;4.60;99.90;;;;;;4895260;29;20280;-88
2021/05/06 22:40:00;;;;;;;1999.90;999.90;;;4.60;99.90;;;;;;4895304;29;20660;-88
2021/05/06 22:42:26;;;;;;;1999.90;999.90;;;4.50;99.90;;;;;;4894992;29;20188;-88
2021/05/06 22:44:52;;;;;;;1999.90;999.90;;;4.50;99.90;;;;;;4895275;29;20187;-88
2021/05/06 22:47:17;;;;;;;1999.90;999.90;;;4.50;99.90;;;;;;4894733;29;20187;-88
2021/05/06 22:49:44;;;;;;;1999.90;999.90;;;4.40;99.90;;;;;;4894794;29;20215;-89
2021/05/06 22:52:10;;;;;;;1999.90;999.90;;;4.40;99.90;;;;;;4880590;29;20218;-90
2021/05/06 22:54:36;;;;;;;1999.90;999.90;;;4.30;99.90;;;;;;4880473;29;20218;-90
2021/05/06 22:57:05;;;;;;;1999.90;999.90;;;4.30;99.90;;;;;;4894969;29;20175;-90
2021/05/06 22:59:32;;;;;;;1999.90;999.90;;;4.20;99.90;;;;;;4894936;29;20655;-90
2021/05/06 23:01:57;;;;;;;1999.90;999.90;;;4.20;99.90;;;;;;4894618;29;20548;-89
2021/05/06 23:04:23;;;;;;;1999.90;999.90;;;4.20;99.90;;;;;;4894674;29;20187;-90
2021/05/06 23:06:54;;;;;;;1999.90;999.90;;;4.20;99.90;;;;;;4894750;29;20187;-89
2021/05/06 23:09:20;;;;;;;1999.90;999.90;;;4.20;99.90;;;;;;4895090;29;20659;-89
2021/05/06 23:11:49;;;;;;;1999.90;999.90;;;4.10;99.90;;;;;;4895080;29;20175;-88
2021/05/06 23:14:15;;;;;;;1999.90;999.90;;;4.10;99.90;;;;;;4896127;29;20640;-88
2021/05/06 23:16:41;;;;;;;1999.90;999.90;;;4.00;99.90;;;;;;4894773;29;20178;-89
2021/05/06 23:19:06;;;;;;;1999.90;999.90;;;4.00;99.90;;;;;;4895128;29;20179;-90
2021/05/06 23:21:32;;;;;;;1999.90;999.90;;;4.00;99.90;;;;;;4894579;29;20175;-89
2021/05/06 23:23:58;;;;;;;1999.90;999.90;;;4.00;99.90;;;;;;4895074;29;20643;-89
2021/05/06 23:26:26;;;;;;;1999.90;999.90;;;3.90;99.90;;;;;;4894734;29;20246;-89
2021/05/06 23:28:52;;;;;;;1999.90;999.90;;;4.00;99.90;;;;;;4894677;29;20179;-89
2021/05/06 23:31:18;;;;;;;1999.90;999.90;;;3.90;99.90;;;;;;4894689;29;20395;-89
2021/05/06 23:33:43;;;;;;;1999.90;999.90;;;3.90;99.90;;;;;;4895158;29;20187;-89
2021/05/06 23:36:09;;;;;;;1999.90;999.90;;;3.90;99.90;;;;;;4894919;29;20211;-88
2021/05/06 23:38:36;;;;;;;1999.90;999.90;;;3.90;99.90;;;;;;4894881;29;20642;-89
2021/05/06 23:41:03;;;;;;;1999.90;999.90;;;3.90;99.90;;;;;;4894522;29;20631;-89
2021/05/06 23:43:29;;;;;;;1999.90;999.90;;;3.90;99.90;;;;;;4894548;29;20202;-90
2021/05/06 23:45:54;;;;;;;1999.90;999.90;;;3.90;99.90;;;;;;4894548;29;20651;-90
2021/05/06 23:48:28;;;;;;;1999.90;999.90;;;3.80;99.90;;;;;;4894588;29;20647;-89
2021/05/06 23:50:55;;;;;;;1999.90;999.90;;;3.80;99.90;;;;;;4894144;29;20303;-88
2021/05/06 23:53:22;;;;;;;1999.90;999.90;;;3.80;99.90;;;;;;4880222;29;20275;-89
2021/05/06 23:55:48;;;;;;;1999.90;999.90;;;3.80;99.90;;;;;;4894438;29;20171;-90
2021/05/06 23:58:25;;;;;;;1999.90;999.90;;;3.80;99.90;;;;;;4894022;29;20252;-89
